createdAt,value
2018-05-10T00:01:28.224Z,34.86
2018-05-10T00:03:04.882Z,34.91
2018-05-10T00:04:45.183Z,34.95
2018-05-10T00:06:22.852Z,34.98
2018-05-10T00:08:02.738Z,35.00
2018-05-10T00:09:40.634Z,35.03
2018-05-10T00:11:17.299Z,35.05
2018-05-10T00:12:54.566Z,35.09
2018-05-10T00:14:31.623Z,35.11
2018-05-10T00:16:08.203Z,35.14
2018-05-10T00:17:48.018Z,35.19
2018-05-10T00:20:55.060Z,35.26
2018-05-10T00:22:32.049Z,35.30
2018-05-10T00:24:08.844Z,35.34
2018-05-10T00:25:46.037Z,35.37
2018-05-10T00:27:23.083Z,35.41
2018-05-10T00:28:59.333Z,35.43
2018-05-10T00:30:37.470Z,35.49
2018-05-10T00:32:15.034Z,35.52
2018-05-10T00:33:51.521Z,35.55
2018-05-10T00:35:28.445Z,35.58
2018-05-10T00:37:05.320Z,35.61
2018-05-10T00:38:41.865Z,35.65
2018-05-10T00:40:18.244Z,35.69
2018-05-10T00:41:54.645Z,35.73
2018-05-10T00:43:31.220Z,35.78
2018-05-10T00:45:07.676Z,35.81
2018-05-10T00:46:45.181Z,35.85
2018-05-10T00:48:21.572Z,35.90
2018-05-10T00:49:58.987Z,35.93
2018-05-10T00:51:37.532Z,35.95
2018-05-10T00:53:13.777Z,35.99
2018-05-10T00:54:58.589Z,36.02
2018-05-10T00:56:35.327Z,36.08
2018-05-10T00:58:11.978Z,36.11
2018-05-10T00:59:50.289Z,36.15
2018-05-10T01:01:27.197Z,36.18
2018-05-10T01:03:04.226Z,36.23
2018-05-10T01:04:41.378Z,36.26
2018-05-10T01:06:17.626Z,36.32
2018-05-10T01:07:54.830Z,36.34
2018-05-10T01:09:31.465Z,36.37
2018-05-10T01:11:07.822Z,36.39
2018-05-10T01:12:44.104Z,36.42
2018-05-10T01:14:20.663Z,36.46
2018-05-10T01:15:57.939Z,36.48
2018-05-10T01:17:35.086Z,36.53
2018-05-10T01:22:12.262Z,36.64
2018-05-10T01:23:50.788Z,36.67
2018-05-10T01:25:28.371Z,36.70
2018-05-10T01:27:06.078Z,36.73
2018-05-10T01:28:43.999Z,36.77
2018-05-10T01:30:23.564Z,36.80
2018-05-10T01:32:02.155Z,36.84
2018-05-10T01:33:40.060Z,36.87
2018-05-10T01:36:24.184Z,36.90
2018-05-10T01:38:02.334Z,36.95
2018-05-10T01:39:40.121Z,36.99
2018-05-10T01:41:17.706Z,37.04
2018-05-10T01:42:55.676Z,37.06
2018-05-10T01:44:33.240Z,37.10
2018-05-10T01:46:11.155Z,37.13
2018-05-10T01:47:48.712Z,37.16
2018-05-10T01:49:27.058Z,37.19
2018-05-10T01:51:04.651Z,37.21
2018-05-10T01:52:42.213Z,37.25
2018-05-10T01:54:19.801Z,37.29
2018-05-10T01:55:58.780Z,37.33
2018-05-10T01:57:36.275Z,37.34
2018-05-10T01:59:13.829Z,37.37
2018-05-10T02:00:51.521Z,37.40
2018-05-10T02:02:29.093Z,37.43
2018-05-10T02:04:08.670Z,37.47
2018-05-10T02:05:46.317Z,37.51
2018-05-10T02:07:24.654Z,37.55
2018-05-10T02:09:02.268Z,37.59
2018-05-10T02:10:41.565Z,37.60
2018-05-10T02:12:19.216Z,37.64
2018-05-10T02:13:56.741Z,37.68
2018-05-10T02:15:34.902Z,37.72
2018-05-10T02:17:19.993Z,37.75
2018-05-10T02:18:57.622Z,37.78
2018-05-10T02:20:35.219Z,37.79
2018-05-10T02:22:12.800Z,37.81
2018-05-10T02:23:50.719Z,37.85
2018-05-10T02:25:28.945Z,37.88
2018-05-10T02:27:12.895Z,37.90
2018-05-10T02:28:49.205Z,37.92
2018-05-10T02:30:29.381Z,37.96
2018-05-10T02:32:08.219Z,37.99
2018-05-10T02:33:44.493Z,38.01
2018-05-10T02:35:20.741Z,38.04
2018-05-10T02:36:56.920Z,38.08
2018-05-10T02:38:33.237Z,38.09
2018-05-10T02:40:10.493Z,38.13
2018-05-10T02:41:46.694Z,38.18
2018-05-10T02:43:22.919Z,38.19
2018-05-10T02:44:59.316Z,38.22
2018-05-10T02:46:36.203Z,38.24
2018-05-10T02:48:13.238Z,38.25
2018-05-10T02:49:49.465Z,38.26
2018-05-10T02:51:25.833Z,38.30
2018-05-10T02:53:02.375Z,38.33
2018-05-10T02:54:40.322Z,38.37
2018-05-10T02:56:16.560Z,38.40
2018-05-10T02:57:52.827Z,38.45
2018-05-10T02:59:29.298Z,38.48
2018-05-10T03:01:05.974Z,38.51
2018-05-10T03:02:42.518Z,38.54
2018-05-10T03:04:18.929Z,38.57
2018-05-10T03:05:55.182Z,38.61
2018-05-10T03:07:31.654Z,38.64
2018-05-10T03:09:10.410Z,38.67
2018-05-10T03:10:46.774Z,38.71
2018-05-10T03:12:23.820Z,38.74
2018-05-10T03:14:00.973Z,38.78
2018-05-10T03:15:38.145Z,38.80
2018-05-10T03:17:14.896Z,38.81
2018-05-10T03:18:51.304Z,38.84
2018-05-10T03:20:27.717Z,38.86
2018-05-10T03:22:06.394Z,38.88
2018-05-10T03:23:42.699Z,38.90
2018-05-10T03:25:20.262Z,38.93
2018-05-10T03:26:56.882Z,38.97
2018-05-10T03:28:33.536Z,39.00
2018-05-10T03:30:10.749Z,39.04
2018-05-10T03:31:47.326Z,39.07
2018-05-10T03:33:24.225Z,39.11
2018-05-10T03:35:00.397Z,39.12
2018-05-10T03:36:36.713Z,39.16
2018-05-10T03:38:12.995Z,39.17
2018-05-10T03:39:49.278Z,39.20
2018-05-10T03:41:26.331Z,39.22
2018-05-10T03:43:02.557Z,39.25
2018-05-10T03:44:38.758Z,39.28
2018-05-10T03:46:15.341Z,39.30
2018-05-10T03:47:52.790Z,39.33
2018-05-10T03:49:29.168Z,39.36
2018-05-10T03:51:05.534Z,39.40
2018-05-10T03:52:42.675Z,39.43
2018-05-10T03:54:19.456Z,39.47
2018-05-10T03:55:56.665Z,39.52
2018-05-10T03:57:32.959Z,39.55
2018-05-10T03:59:09.204Z,39.58
2018-05-10T04:00:47.126Z,39.59
2018-05-10T04:02:36.484Z,39.63
2018-05-10T04:04:27.862Z,39.67
2018-05-10T04:09:21.550Z,39.70
2018-05-10T04:11:28.912Z,39.78
2018-05-10T04:13:05.168Z,39.84
2018-05-10T04:14:41.389Z,39.85
2018-05-10T04:17:58.320Z,39.93
2018-05-10T04:19:34.565Z,39.97
2018-05-10T04:21:11.573Z,40.01
2018-05-10T04:22:48.356Z,40.05
2018-05-10T04:24:24.666Z,40.09
2018-05-10T04:26:00.910Z,40.09
2018-05-10T04:27:38.000Z,40.11
2018-05-10T04:29:14.594Z,40.14
2018-05-10T04:30:51.122Z,40.18
2018-05-10T04:32:27.469Z,40.21
2018-05-10T04:34:04.529Z,40.26
2018-05-10T04:35:41.223Z,40.30
2018-05-10T04:37:17.527Z,40.34
2018-05-10T04:38:53.839Z,40.37
2018-05-10T04:40:30.177Z,40.39
2018-05-10T04:42:06.552Z,40.43
2018-05-10T04:43:43.108Z,40.47
2018-05-10T04:45:20.109Z,40.51
2018-05-10T04:46:57.127Z,40.54
2018-05-10T04:48:33.878Z,40.58
2018-05-10T04:50:11.356Z,40.61
2018-05-10T04:51:47.619Z,40.63
2018-05-10T04:53:24.681Z,40.65
2018-05-10T04:55:01.544Z,40.67
2018-05-10T04:56:37.771Z,40.71
2018-05-10T04:58:14.828Z,40.75
2018-05-10T04:59:51.090Z,40.79
2018-05-10T05:01:28.042Z,40.82
2018-05-10T05:03:05.157Z,40.85
2018-05-10T05:04:41.544Z,40.88
2018-05-10T05:06:18.570Z,40.91
2018-05-10T05:07:56.134Z,40.94
2018-05-10T05:09:32.448Z,40.98
2018-05-10T05:11:09.410Z,41.02
2018-05-10T05:12:45.689Z,41.04
2018-05-10T05:14:22.289Z,41.08
2018-05-10T05:15:58.975Z,41.12
2018-05-10T05:17:35.309Z,41.14
2018-05-10T05:19:12.141Z,41.19
2018-05-10T05:20:48.829Z,41.22
2018-05-10T05:22:25.114Z,41.25
2018-05-10T05:24:01.419Z,41.27
2018-05-10T05:25:37.679Z,41.29
2018-05-10T05:27:15.101Z,41.32
2018-05-10T05:28:51.501Z,41.35
2018-05-10T05:30:28.010Z,41.37
2018-05-10T05:32:04.794Z,41.41
2018-05-10T05:33:41.603Z,41.42
2018-05-10T05:35:18.649Z,41.46
2018-05-10T05:36:57.308Z,41.50
2018-05-10T05:38:33.599Z,41.53
2018-05-10T05:40:11.264Z,41.56
2018-05-10T05:41:47.508Z,41.57
2018-05-10T05:43:23.901Z,41.59
2018-05-10T05:45:00.036Z,41.64
2018-05-10T05:46:38.006Z,41.68
2018-05-10T05:48:14.293Z,41.72
2018-05-10T05:49:51.069Z,41.73
2018-05-10T05:51:27.550Z,41.75
2018-05-10T05:53:04.147Z,41.81
2018-05-10T05:54:40.789Z,41.86
2018-05-10T05:56:17.772Z,41.91
2018-05-10T05:57:54.771Z,41.96
2018-05-10T05:59:31.510Z,42.00
2018-05-10T06:01:08.452Z,42.04
2018-05-10T06:04:20.586Z,42.10
2018-05-10T06:05:57.215Z,42.13
2018-05-10T06:07:33.989Z,42.17
2018-05-10T06:09:10.256Z,42.23
2018-05-10T06:10:47.042Z,42.27
2018-05-10T06:12:24.446Z,42.29
2018-05-10T06:14:01.536Z,42.33
2018-05-10T06:15:38.270Z,42.36
2018-05-10T06:17:14.534Z,42.39
2018-05-10T06:18:51.151Z,42.42
2018-05-10T06:20:27.576Z,42.46
2018-05-10T06:22:05.019Z,42.48
2018-05-10T06:23:41.860Z,42.51
2018-05-10T06:25:18.765Z,42.54
2018-05-10T06:26:55.085Z,42.54
2018-05-10T06:28:32.095Z,42.56
2018-05-10T06:30:09.270Z,42.60
2018-05-10T06:31:46.333Z,42.62
2018-05-10T06:33:22.682Z,42.65
2018-05-10T06:34:58.964Z,42.68
2018-05-10T06:36:35.242Z,42.71
2018-05-10T06:38:12.433Z,42.72
2018-05-10T06:39:48.924Z,42.75
2018-05-10T06:41:25.280Z,42.76
2018-05-10T06:43:01.851Z,42.79
2018-05-10T06:44:38.656Z,42.81
2018-05-10T06:46:15.441Z,42.84
2018-05-10T06:47:52.522Z,42.86
2018-05-10T06:49:28.917Z,42.87
2018-05-10T06:51:05.692Z,42.90
2018-05-10T06:52:42.088Z,42.92
2018-05-10T06:54:18.387Z,42.96
2018-05-10T06:55:54.726Z,42.99
2018-05-10T06:57:31.717Z,43.01
2018-05-10T06:59:08.631Z,43.04
2018-05-10T07:00:45.472Z,43.06
2018-05-10T07:02:21.802Z,43.08
2018-05-10T07:03:58.348Z,43.09
2018-05-10T07:05:34.686Z,43.11
2018-05-10T07:07:10.966Z,43.13
2018-05-10T07:08:47.262Z,43.16
2018-05-10T07:10:24.011Z,43.17
2018-05-10T07:12:00.533Z,43.21
2018-05-10T07:13:36.872Z,43.23
2018-05-10T07:15:15.463Z,43.27
2018-05-10T07:16:52.349Z,43.31
2018-05-10T07:18:29.371Z,43.34
2018-05-10T07:20:05.736Z,43.35
2018-05-10T07:21:41.984Z,43.40
2018-05-10T07:23:18.892Z,43.41
2018-05-10T07:24:55.145Z,43.45
2018-05-10T07:26:31.489Z,43.47
2018-05-10T07:28:07.739Z,43.49
2018-05-10T07:29:44.634Z,43.50
2018-05-10T07:31:21.390Z,43.51
2018-05-10T07:32:57.794Z,43.54
2018-05-10T07:34:34.223Z,43.57
2018-05-10T07:36:11.211Z,43.60
2018-05-10T07:37:47.628Z,43.63
2018-05-10T07:39:24.014Z,43.67
2018-05-10T07:41:00.504Z,43.69
2018-05-10T07:42:37.741Z,43.69
2018-05-10T07:44:14.314Z,43.72
2018-05-10T07:45:50.856Z,43.76
2018-05-10T07:47:28.078Z,43.79
2018-05-10T07:49:04.421Z,43.81
2018-05-10T07:50:40.749Z,43.83
2018-05-10T07:52:17.011Z,43.85
2018-05-10T07:53:53.357Z,43.86
2018-05-10T07:55:29.642Z,43.88
2018-05-10T07:57:06.048Z,43.92
2018-05-10T07:58:42.503Z,43.93
2018-05-10T08:00:19.672Z,43.96
2018-05-10T08:01:56.268Z,43.97
2018-05-10T08:03:33.424Z,43.96
2018-05-10T08:05:09.717Z,43.95
2018-05-10T08:06:46.515Z,43.96
2018-05-10T08:08:22.967Z,43.97
2018-05-10T08:10:00.435Z,43.99
2018-05-10T08:11:36.821Z,43.99
2018-05-10T08:13:13.573Z,43.98
2018-05-10T08:14:50.173Z,43.99
2018-05-10T08:16:27.014Z,44.01
2018-05-10T08:18:03.748Z,44.04
2018-05-10T08:19:40.642Z,44.05
2018-05-10T08:21:17.024Z,44.06
2018-05-10T08:22:53.444Z,44.09
2018-05-10T08:24:29.866Z,44.09
2018-05-10T08:26:06.617Z,44.11
2018-05-10T08:27:48.501Z,44.12
2018-05-10T08:29:26.051Z,44.12
2018-05-10T08:31:02.850Z,44.12
2018-05-10T08:32:39.420Z,44.12
2018-05-10T08:34:15.766Z,44.12
2018-05-10T08:35:54.156Z,44.09
2018-05-10T08:37:30.600Z,44.09
2018-05-10T08:39:24.956Z,44.10
2018-05-10T08:41:02.100Z,44.11
2018-05-10T08:42:38.416Z,44.10
2018-05-10T08:44:15.665Z,44.11
2018-05-10T08:45:52.529Z,44.11
2018-05-10T08:49:05.992Z,44.14
2018-05-10T08:50:43.321Z,44.10
2018-05-10T08:52:19.975Z,44.09
2018-05-10T08:53:56.307Z,44.11
2018-05-10T08:55:33.355Z,44.09
2018-05-10T08:57:09.676Z,44.11
2018-05-10T08:58:46.574Z,44.12
2018-05-10T09:00:23.094Z,44.10
2018-05-10T09:01:59.423Z,44.10
2018-05-10T09:03:35.722Z,44.10
2018-05-10T09:05:12.385Z,44.08
2018-05-10T09:06:49.572Z,44.08
2018-05-10T09:08:26.679Z,44.11
2018-05-10T09:10:03.107Z,44.05
2018-05-10T09:11:40.752Z,44.04
2018-05-10T09:13:17.109Z,44.05
2018-05-10T09:14:55.225Z,44.03
2018-05-10T09:16:32.030Z,44.02
2018-05-10T09:18:08.542Z,44.00
2018-05-10T09:19:45.000Z,44.02
2018-05-10T09:21:21.346Z,44.01
2018-05-10T09:22:58.483Z,44.00
2018-05-10T09:24:36.447Z,44.00
2018-05-10T09:26:12.785Z,44.00
2018-05-10T09:27:49.986Z,43.99
2018-05-10T09:29:26.360Z,43.99
2018-05-10T09:31:04.254Z,43.96
2018-05-10T09:32:40.554Z,43.95
2018-05-10T09:34:16.895Z,43.95
2018-05-10T09:35:53.413Z,43.94
2018-05-10T09:37:30.134Z,43.91
2018-05-10T09:39:07.829Z,43.87
2018-05-10T09:40:44.132Z,43.86
2018-05-10T09:42:21.227Z,43.83
2018-05-10T09:43:58.466Z,43.81
2018-05-10T09:45:35.985Z,43.80
2018-05-10T09:47:12.265Z,43.79
2018-05-10T09:48:48.699Z,43.78
2018-05-10T09:50:26.733Z,43.77
2018-05-10T09:52:04.161Z,43.76
2018-05-10T09:53:40.440Z,43.75
2018-05-10T09:55:17.128Z,43.75
2018-05-10T09:56:53.612Z,43.75
2018-05-10T09:58:30.922Z,43.76
2018-05-10T10:00:09.980Z,43.72
2018-05-10T10:01:47.092Z,43.70
2018-05-10T10:03:23.447Z,43.67
2018-05-10T10:04:59.775Z,43.66
2018-05-10T10:06:36.312Z,43.63
2018-05-10T10:08:12.795Z,43.62
2018-05-10T10:09:49.258Z,43.62
2018-05-10T10:11:25.745Z,43.61
2018-05-10T10:13:02.187Z,43.58
2018-05-10T10:14:38.942Z,43.58
2018-05-10T10:16:15.622Z,43.57
2018-05-10T10:17:52.019Z,43.59
2018-05-10T10:19:28.423Z,43.59
2018-05-10T10:21:08.268Z,43.58
2018-05-10T10:22:45.030Z,43.59
2018-05-10T10:24:21.352Z,43.59
2018-05-10T10:25:57.666Z,43.57
2018-05-10T10:27:34.418Z,43.57
2018-05-10T10:29:10.865Z,43.56
2018-05-10T10:30:47.764Z,43.56
2018-05-10T10:32:24.210Z,43.54
2018-05-10T10:34:00.816Z,43.55
2018-05-10T10:35:37.355Z,43.54
2018-05-10T10:37:14.429Z,43.53
2018-05-10T10:38:50.844Z,43.51
2018-05-10T10:40:27.519Z,43.51
2018-05-10T10:42:03.911Z,43.50
2018-05-10T10:43:41.018Z,43.48
2018-05-10T10:45:18.414Z,43.47
2018-05-10T10:46:55.127Z,43.45
2018-05-10T10:48:31.537Z,43.47
2018-05-10T10:50:08.656Z,43.44
2018-05-10T10:51:45.014Z,43.44
2018-05-10T10:53:21.910Z,43.43
2018-05-10T10:54:59.113Z,43.40
2018-05-10T10:56:35.822Z,43.35
2018-05-10T10:58:12.627Z,43.32
2018-05-10T10:59:49.785Z,43.31
2018-05-10T11:01:26.465Z,43.30
2018-05-10T11:03:03.699Z,43.28
2018-05-10T11:04:40.878Z,43.28
2018-05-10T11:06:18.446Z,43.28
2018-05-10T11:07:55.277Z,43.27
2018-05-10T11:09:31.710Z,43.26
2018-05-10T11:11:08.961Z,43.26
2018-05-10T11:12:45.920Z,43.24
2018-05-10T11:14:22.313Z,43.22
2018-05-10T11:15:59.130Z,43.21
2018-05-10T11:17:35.485Z,43.20
2018-05-10T11:19:11.899Z,43.20
2018-05-10T11:20:48.465Z,43.19
2018-05-10T11:22:24.772Z,43.18
2018-05-10T11:24:01.135Z,43.17
2018-05-10T11:25:37.879Z,43.17
2018-05-10T11:27:14.311Z,43.15
2018-05-10T11:28:50.945Z,43.16
2018-05-10T11:30:30.474Z,43.17
2018-05-10T11:32:07.247Z,43.16
2018-05-10T11:33:43.608Z,43.15
2018-05-10T11:35:19.970Z,43.14
2018-05-10T11:36:56.397Z,43.15
2018-05-10T11:38:34.423Z,43.16
2018-05-10T11:40:11.032Z,43.17
2018-05-10T11:41:47.539Z,43.18
2018-05-10T11:43:24.718Z,43.21
2018-05-10T11:45:03.211Z,43.22
2018-05-10T11:46:39.962Z,43.25
2018-05-10T11:48:16.379Z,43.25
2018-05-10T11:49:53.515Z,43.25
2018-05-10T11:51:30.221Z,43.28
2018-05-10T11:53:07.396Z,43.29
2018-05-10T11:54:44.479Z,43.28
2018-05-10T11:56:21.573Z,43.31
2018-05-10T11:58:03.610Z,43.29
2018-05-10T11:59:39.884Z,43.30
2018-05-10T12:01:16.385Z,43.30
2018-05-10T12:02:52.930Z,43.32
2018-05-10T12:04:29.295Z,43.31
2018-05-10T12:06:05.837Z,43.33
2018-05-10T12:07:42.245Z,43.36
2018-05-10T12:09:19.326Z,43.38
2018-05-10T12:10:56.144Z,43.38
2018-05-10T12:12:32.461Z,43.38
2018-05-10T12:14:08.778Z,43.40
2018-05-10T12:15:45.544Z,43.41
2018-05-10T12:17:23.319Z,43.42
2018-05-10T12:18:59.694Z,43.45
2018-05-10T12:20:36.062Z,43.47
2018-05-10T12:22:12.671Z,43.50
2018-05-10T12:23:50.142Z,43.53
2018-05-10T12:25:27.393Z,43.54
2018-05-10T12:27:04.534Z,43.56
2018-05-10T12:28:40.922Z,43.57
2018-05-10T12:30:18.206Z,43.57
2018-05-10T12:31:54.725Z,43.56
2018-05-10T12:33:31.305Z,43.56
2018-05-10T12:35:07.863Z,43.57
2018-05-10T12:36:45.180Z,43.59
2018-05-10T12:38:21.557Z,43.58
2018-05-10T12:39:58.152Z,43.62
2018-05-10T12:41:34.502Z,43.65
2018-05-10T12:43:11.210Z,43.68
2018-05-10T12:44:47.542Z,43.71
2018-05-10T12:46:24.234Z,43.74
2018-05-10T12:48:01.432Z,43.75
2018-05-10T12:49:37.813Z,43.77
2018-05-10T12:51:14.193Z,43.78
2018-05-10T12:52:51.078Z,43.79
2018-05-10T12:54:28.083Z,43.83
2018-05-10T12:56:05.715Z,43.84
2018-05-10T12:57:42.881Z,43.87
2018-05-10T12:59:19.293Z,43.89
2018-05-10T13:00:56.255Z,43.90
2018-05-10T13:02:32.957Z,43.91
2018-05-10T13:04:09.428Z,43.91
2018-05-10T13:05:45.767Z,43.93
2018-05-10T13:07:24.222Z,43.97
2018-05-10T13:09:01.234Z,43.98
2018-05-10T13:10:37.720Z,44.01
2018-05-10T13:12:14.417Z,44.03
2018-05-10T13:13:50.826Z,44.05
2018-05-10T13:15:31.961Z,44.09
2018-05-10T13:17:08.345Z,44.11
2018-05-10T13:18:45.504Z,44.13
2018-05-10T13:20:22.670Z,44.14
2018-05-10T13:21:59.445Z,44.19
2018-05-10T13:23:36.676Z,44.18
2018-05-10T13:25:13.172Z,44.20
2018-05-10T13:26:49.564Z,44.22
2018-05-10T13:28:27.134Z,44.22
2018-05-10T13:30:05.826Z,44.21
2018-05-10T13:31:42.301Z,44.22
2018-05-10T13:33:18.724Z,44.23
2018-05-10T13:34:56.345Z,44.26
2018-05-10T13:36:33.119Z,44.28
2018-05-10T13:38:12.294Z,44.30
2018-05-10T13:39:48.834Z,44.32
2018-05-10T13:41:26.801Z,44.34
2018-05-10T13:44:35.118Z,44.37
2018-05-10T13:46:12.876Z,44.40
2018-05-10T13:49:30.682Z,44.44
2018-05-10T13:51:07.377Z,44.42
2018-05-10T13:52:44.603Z,44.43
2018-05-10T13:54:21.456Z,44.46
2018-05-10T13:55:57.953Z,44.50
2018-05-10T13:57:34.437Z,44.51
2018-05-10T13:59:10.796Z,44.52
2018-05-10T14:00:47.735Z,44.54
2018-05-10T14:02:24.214Z,44.57
2018-05-10T14:04:01.411Z,44.57
2018-05-10T14:05:37.735Z,44.58
2018-05-10T14:07:14.750Z,44.60
2018-05-10T14:08:51.417Z,44.58
2018-05-10T14:10:28.308Z,44.60
2018-05-10T14:12:04.719Z,44.61
2018-05-10T14:13:41.403Z,44.62
2018-05-10T14:15:18.709Z,44.66
2018-05-10T14:16:55.229Z,44.67
2018-05-10T14:18:31.587Z,44.69
2018-05-10T14:20:08.370Z,44.70
2018-05-10T14:21:44.770Z,44.72
2018-05-10T14:23:21.118Z,44.74
2018-05-10T14:24:57.573Z,44.74
2018-05-10T14:26:34.368Z,44.75
2018-05-10T14:28:11.079Z,44.76
2018-05-10T14:29:47.819Z,44.77
2018-05-10T14:31:24.437Z,44.79
2018-05-10T14:33:01.277Z,44.80
2018-05-10T14:34:37.660Z,44.82
2018-05-10T14:36:15.089Z,44.83
2018-05-10T14:37:51.578Z,44.84
2018-05-10T14:39:28.743Z,44.85
2018-05-10T14:41:05.288Z,44.85
2018-05-10T14:42:42.175Z,44.87
2018-05-10T14:44:18.549Z,44.89
2018-05-10T14:45:56.099Z,44.91
2018-05-10T14:47:33.197Z,44.94
2018-05-10T14:49:09.674Z,44.97
2018-05-10T14:50:46.351Z,44.98
2018-05-10T14:52:24.586Z,45.00
2018-05-10T14:54:01.880Z,45.02
2018-05-10T14:55:39.231Z,45.03
2018-05-10T14:57:15.742Z,45.05
2018-05-10T14:58:52.622Z,45.06
2018-05-10T15:00:30.175Z,45.08
2018-05-10T15:02:06.764Z,45.08
2018-05-10T15:03:43.129Z,45.11
2018-05-10T15:05:21.641Z,45.13
2018-05-10T15:06:58.883Z,45.15
2018-05-10T15:08:35.675Z,45.19
2018-05-10T15:10:12.111Z,45.20
2018-05-10T15:11:49.057Z,45.22
2018-05-10T15:13:26.439Z,45.24
2018-05-10T15:15:04.460Z,45.26
2018-05-10T15:16:40.993Z,45.26
2018-05-10T15:18:18.585Z,45.26
2018-05-10T15:19:55.855Z,45.25
2018-05-10T15:21:32.695Z,45.26
2018-05-10T15:23:09.142Z,45.27
2018-05-10T15:24:45.528Z,45.28
2018-05-10T15:26:21.892Z,45.30
2018-05-10T15:27:58.285Z,45.31
2018-05-10T15:29:35.265Z,45.33
2018-05-10T15:31:13.284Z,45.32
2018-05-10T15:32:50.259Z,45.31
2018-05-10T15:34:27.882Z,45.31
2018-05-10T15:36:04.640Z,45.31
2018-05-10T15:37:41.462Z,45.31
2018-05-10T15:39:17.871Z,45.33
2018-05-10T15:40:54.358Z,45.34
2018-05-10T15:42:31.772Z,45.35
2018-05-10T15:44:08.248Z,45.36
2018-05-10T15:45:44.960Z,45.36
2018-05-10T15:47:21.463Z,45.35
2018-05-10T15:48:58.241Z,45.34
2018-05-10T15:50:34.808Z,45.31
2018-05-10T15:52:12.021Z,45.32
2018-05-10T15:53:49.352Z,45.31
2018-05-10T15:55:26.267Z,45.31
2018-05-10T15:57:03.630Z,45.31
2018-05-10T15:58:40.074Z,45.32
2018-05-10T16:00:18.362Z,45.31
2018-05-10T16:01:55.208Z,45.29
2018-05-10T16:03:33.229Z,45.28
2018-05-10T16:05:10.388Z,45.27
2018-05-10T16:06:46.773Z,45.28
2018-05-10T16:08:23.975Z,45.26
2018-05-10T16:10:01.202Z,45.26
2018-05-10T16:11:37.787Z,45.27
2018-05-10T16:13:14.118Z,45.27
2018-05-10T16:14:51.021Z,45.27
2018-05-10T16:16:27.663Z,45.27
2018-05-10T16:18:04.011Z,45.28
2018-05-10T16:19:40.535Z,45.27
2018-05-10T16:21:20.092Z,45.25
2018-05-10T16:22:59.842Z,45.25
2018-05-10T16:24:36.227Z,45.23
2018-05-10T16:26:12.657Z,45.22
2018-05-10T16:27:49.498Z,45.19
2018-05-10T16:29:27.995Z,45.18
2018-05-10T16:31:06.441Z,45.16
2018-05-10T16:32:44.527Z,45.15
2018-05-10T16:34:40.001Z,45.13
2018-05-10T16:36:18.142Z,45.12
2018-05-10T16:37:56.443Z,45.10
2018-05-10T16:39:34.053Z,45.09
2018-05-10T16:41:10.958Z,45.08
2018-05-10T16:42:47.317Z,45.07
2018-05-10T16:44:23.805Z,45.05
2018-05-10T16:46:20.023Z,45.03
2018-05-10T16:47:59.429Z,45.02
2018-05-10T16:49:36.591Z,45.00
2018-05-10T16:51:13.189Z,45.00
2018-05-10T16:52:49.720Z,44.99
2018-05-10T16:54:27.301Z,44.98
2018-05-10T16:56:05.176Z,44.97
2018-05-10T16:57:42.836Z,44.97
2018-05-10T16:59:20.442Z,44.94
2018-05-10T17:00:58.249Z,44.93
2018-05-10T17:02:34.516Z,44.92
2018-05-10T17:04:11.663Z,44.90
2018-05-10T17:05:48.152Z,44.88
2018-05-10T17:07:25.795Z,44.87
2018-05-10T17:09:02.238Z,44.84
2018-05-10T17:10:38.740Z,44.82
2018-05-10T17:12:16.443Z,44.80
2018-05-10T17:13:53.369Z,44.81
2018-05-10T17:15:30.042Z,44.80
2018-05-10T17:17:06.598Z,44.80
2018-05-10T17:18:42.945Z,44.79
2018-05-10T17:20:19.576Z,44.79
2018-05-10T17:21:57.039Z,44.78
2018-05-10T17:23:33.436Z,44.77
2018-05-10T17:25:09.929Z,44.75
2018-05-10T17:26:46.798Z,44.74
2018-05-10T17:28:24.503Z,44.70
2018-05-10T17:30:02.502Z,44.67
2018-05-10T17:31:39.332Z,44.65
2018-05-10T17:33:16.366Z,44.63
2018-05-10T17:34:52.860Z,44.63
2018-05-10T17:36:29.324Z,44.61
2018-05-10T17:38:06.521Z,44.60
2018-05-10T17:39:44.134Z,44.58
2018-05-10T17:41:20.476Z,44.58
2018-05-10T17:42:57.785Z,44.55
2018-05-10T17:44:34.275Z,44.56
2018-05-10T17:46:13.011Z,44.54
2018-05-10T17:47:50.539Z,44.53
2018-05-10T17:49:28.537Z,44.53
2018-05-10T17:51:05.152Z,44.52
2018-05-10T17:52:42.034Z,44.51
2018-05-10T17:54:18.434Z,44.50
2018-05-10T17:55:54.821Z,44.48
2018-05-10T17:57:32.614Z,44.47
2018-05-10T17:59:10.377Z,44.46
2018-05-10T18:00:47.084Z,44.45
2018-05-10T18:02:23.622Z,44.43
2018-05-10T18:04:00.079Z,44.42
2018-05-10T18:05:36.591Z,44.41
2018-05-10T18:07:13.108Z,44.39
2018-05-10T18:08:50.670Z,44.38
2018-05-10T18:10:29.669Z,44.37
2018-05-10T18:12:07.522Z,44.37
2018-05-10T18:13:44.098Z,44.35
2018-05-10T18:15:21.438Z,44.33
2018-05-10T18:17:01.216Z,44.31
2018-05-10T18:18:38.129Z,44.30
2018-05-10T18:20:14.589Z,44.29
2018-05-10T18:21:51.043Z,44.28
2018-05-10T18:23:27.752Z,44.26
2018-05-10T18:25:04.838Z,44.24
2018-05-10T18:26:41.540Z,44.23
2018-05-10T18:28:18.948Z,44.21
2018-05-10T18:29:56.365Z,44.21
2018-05-10T18:31:34.011Z,44.20
2018-05-10T18:33:11.355Z,44.20
2018-05-10T18:34:47.902Z,44.20
2018-05-10T18:36:26.280Z,44.17
2018-05-10T18:38:03.304Z,44.16
2018-05-10T18:39:39.825Z,44.15
2018-05-10T18:41:16.252Z,44.14
2018-05-10T18:42:52.674Z,44.12
2018-05-10T18:44:29.477Z,44.12
2018-05-10T18:46:06.911Z,44.11
2018-05-10T18:47:44.095Z,44.09
2018-05-10T18:49:23.037Z,44.07
2018-05-10T18:50:59.402Z,44.07
2018-05-10T18:52:35.879Z,44.04
2018-05-10T18:54:13.102Z,44.03
2018-05-10T18:55:49.493Z,44.03
2018-05-10T18:57:26.377Z,44.00
2018-05-10T18:59:02.928Z,43.99
2018-05-10T19:00:39.550Z,43.99
2018-05-10T19:02:15.929Z,43.98
2018-05-10T19:03:52.768Z,43.97
2018-05-10T19:05:29.384Z,43.96
2018-05-10T19:07:06.818Z,43.95
2018-05-10T19:08:43.555Z,43.95
2018-05-10T19:10:21.341Z,43.93
2018-05-10T19:11:58.638Z,43.91
2018-05-10T19:13:35.001Z,43.91
2018-05-10T19:15:12.827Z,43.89
2018-05-10T19:18:46.025Z,43.88
2018-05-10T19:20:23.189Z,43.88
2018-05-10T19:22:06.888Z,43.89
2018-05-10T19:23:48.184Z,43.88
2018-05-10T19:25:35.193Z,43.86
2018-05-10T19:27:12.123Z,43.84
2018-05-10T19:28:48.620Z,43.83
2018-05-10T19:30:25.357Z,43.81
2018-05-10T19:32:02.208Z,43.80
2018-05-10T19:33:38.995Z,43.80
2018-05-10T19:35:16.472Z,43.80
2018-05-10T19:36:52.963Z,43.78
2018-05-10T19:38:29.619Z,43.78
2018-05-10T19:40:06.619Z,43.76
2018-05-10T19:41:43.901Z,43.76
2018-05-10T19:43:20.329Z,43.75
2018-05-10T19:44:57.542Z,43.73
2018-05-10T19:46:34.186Z,43.72
2018-05-10T19:48:11.404Z,43.71
2018-05-10T19:49:48.144Z,43.70
2018-05-10T19:51:24.968Z,43.69
2018-05-10T19:53:06.789Z,43.68
2018-05-10T19:54:43.393Z,43.68
2018-05-10T19:56:20.267Z,43.68
2018-05-10T19:57:56.710Z,43.68
2018-05-10T19:59:33.515Z,43.68
2018-05-10T20:01:10.998Z,43.66
2018-05-10T20:02:47.426Z,43.66
2018-05-10T20:04:23.912Z,43.65
2018-05-10T20:06:00.819Z,43.65
2018-05-10T20:07:37.560Z,43.64
2018-05-10T20:09:14.237Z,43.64
2018-05-10T20:10:50.736Z,43.63
2018-05-10T20:12:28.448Z,43.63
2018-05-10T20:14:05.125Z,43.62
2018-05-10T20:15:42.446Z,43.62
2018-05-10T20:17:18.961Z,43.61
2018-05-10T20:18:56.018Z,43.60
2018-05-10T20:20:32.415Z,43.58
2018-05-10T20:22:09.000Z,43.58
2018-05-10T20:23:45.383Z,43.58
2018-05-10T20:25:22.250Z,43.56
2018-05-10T20:26:58.751Z,43.56
2018-05-10T20:28:36.174Z,43.56
2018-05-10T20:30:20.168Z,43.57
2018-05-10T20:31:56.634Z,43.55
2018-05-10T20:35:20.667Z,43.56
2018-05-10T20:36:59.034Z,43.56
2018-05-10T20:38:36.417Z,43.55
2018-05-10T20:40:14.485Z,43.54
2018-05-10T20:41:52.407Z,43.52
2018-05-10T20:43:29.930Z,43.52
2018-05-10T20:45:08.621Z,43.52
2018-05-10T20:46:47.405Z,43.51
2018-05-10T20:48:24.178Z,43.50
2018-05-10T20:50:02.366Z,43.50
2018-05-10T20:51:39.890Z,43.49
2018-05-10T20:53:17.220Z,43.49
2018-05-10T20:54:54.364Z,43.48
2018-05-10T20:56:33.144Z,43.47
2018-05-10T20:58:10.218Z,43.46
2018-05-10T20:59:51.985Z,43.46
2018-05-10T21:01:28.823Z,43.46
2018-05-10T21:03:05.950Z,43.46
2018-05-10T21:04:42.578Z,43.47
2018-05-10T21:06:19.609Z,43.46
2018-05-10T21:07:55.988Z,43.46
2018-05-10T21:09:33.101Z,43.48
2018-05-10T21:11:09.681Z,43.49
2018-05-10T21:12:47.420Z,43.51